createdAt,value
2018-06-09T00:00:24.136Z,14.00
2018-06-09T00:02:52.266Z,12.90
2018-06-09T00:05:20.445Z,14.35
2018-06-09T00:07:48.577Z,11.95
2018-06-09T00:10:17.487Z,17.12
2018-06-09T00:12:45.614Z,16.48
2018-06-09T00:15:13.743Z,13.20
2018-06-09T00:17:41.859Z,14.60
2018-06-09T00:20:09.997Z,13.73
2018-06-09T00:22:38.132Z,12.27
2018-06-09T00:25:06.263Z,11.80
2018-06-09T00:27:34.394Z,11.60
2018-06-09T00:30:02.534Z,13.40
2018-06-09T00:32:30.653Z,13.32
2018-06-09T00:34:58.778Z,12.35
2018-06-09T00:37:26.917Z,13.15
2018-06-09T00:39:55.194Z,13.50
2018-06-09T00:42:23.302Z,15.55
2018-06-09T00:44:51.435Z,13.55
2018-06-09T00:47:19.652Z,13.73
2018-06-09T00:49:47.799Z,14.18
2018-06-09T00:52:15.923Z,13.27
2018-06-09T00:54:44.806Z,12.48
2018-06-09T00:57:13.788Z,12.05
2018-06-09T00:59:41.901Z,13.75
2018-06-09T01:02:10.390Z,12.43
2018-06-09T01:04:39.256Z,11.73
2018-06-09T01:07:08.385Z,13.30
2018-06-09T01:09:36.508Z,11.52
2018-06-09T01:12:04.651Z,14.15
2018-06-09T01:14:32.763Z,12.30
2018-06-09T01:17:02.668Z,12.88
2018-06-09T01:19:30.792Z,13.50
2018-06-09T01:21:59.181Z,12.32
2018-06-09T01:24:27.301Z,12.23
2018-06-09T01:26:57.214Z,12.65
2018-06-09T01:29:26.107Z,11.82
2018-06-09T01:31:55.227Z,12.95
2018-06-09T01:34:23.340Z,11.45
2018-06-09T01:36:53.455Z,12.30
2018-06-09T01:39:21.576Z,11.70
2018-06-09T01:41:50.475Z,12.57
2018-06-09T01:44:18.593Z,12.07
2018-06-09T01:46:46.719Z,12.70
2018-06-09T01:49:14.842Z,11.90
2018-06-09T01:51:42.980Z,14.15
2018-06-09T01:54:11.101Z,12.15
2018-06-09T01:56:39.234Z,12.25
2018-06-09T01:59:07.355Z,13.85
2018-06-09T02:01:35.519Z,11.10
2018-06-09T02:04:03.634Z,11.98
2018-06-09T02:06:31.863Z,10.60
2018-06-09T02:09:00.000Z,12.23
2018-06-09T02:11:28.126Z,11.38
2018-06-09T02:13:56.274Z,10.88
2018-06-09T02:16:24.388Z,12.25
2018-06-09T02:18:53.295Z,14.43
2018-06-09T02:21:21.430Z,13.45
2018-06-09T02:23:49.563Z,13.00
2018-06-09T02:26:17.684Z,10.75
2018-06-09T02:28:45.798Z,12.37
2018-06-09T02:31:13.920Z,11.77
2018-06-09T02:33:42.072Z,11.82
2018-06-09T02:36:10.192Z,18.27
2018-06-09T02:38:39.086Z,11.55
2018-06-09T02:41:07.966Z,12.48
2018-06-09T02:43:36.858Z,15.10
2018-06-09T02:46:07.780Z,12.52
2018-06-09T02:48:35.901Z,12.10
2018-06-09T02:51:04.040Z,12.82
2018-06-09T02:53:32.416Z,17.27
2018-06-09T02:56:00.609Z,12.00
2018-06-09T02:58:29.499Z,12.30
2018-06-09T03:00:58.406Z,11.98
2018-06-09T03:03:26.543Z,13.00
2018-06-09T03:05:54.656Z,14.00
2018-06-09T03:08:22.806Z,11.88
2018-06-09T03:10:50.923Z,12.15
2018-06-09T03:13:19.095Z,12.43
2018-06-09T03:15:48.329Z,13.62
2018-06-09T03:18:17.212Z,12.43
2018-06-09T03:20:45.325Z,12.25
2018-06-09T03:23:14.227Z,11.43
2018-06-09T03:25:42.514Z,12.60
2018-06-09T03:28:13.031Z,14.75
2018-06-09T03:30:42.543Z,20.15
2018-06-09T03:33:10.669Z,13.60
2018-06-09T03:35:38.852Z,11.75
2018-06-09T03:38:06.961Z,11.45
2018-06-09T03:40:35.995Z,14.75
2018-06-09T03:43:04.107Z,14.65
2018-06-09T03:45:33.996Z,14.02
2018-06-09T03:48:02.158Z,16.23
2018-06-09T03:50:30.361Z,12.07
2018-06-09T03:52:58.573Z,13.05
2018-06-09T03:55:30.121Z,12.02
2018-06-09T03:57:59.304Z,13.38
2018-06-09T04:00:29.240Z,13.00
2018-06-09T04:02:57.363Z,15.32
2018-06-09T04:05:25.888Z,12.05
2018-06-09T04:07:54.016Z,13.48
2018-06-09T04:10:22.142Z,11.63
2018-06-09T04:12:52.650Z,12.48
2018-06-09T04:15:20.774Z,12.32
2018-06-09T04:17:48.913Z,15.05
2018-06-09T04:20:17.039Z,11.98
2018-06-09T04:22:45.192Z,10.95
2018-06-09T04:25:13.303Z,11.60
2018-06-09T04:27:42.460Z,13.43
2018-06-09T04:30:13.095Z,15.55
2018-06-09T04:32:41.338Z,9.85
2018-06-09T04:35:09.460Z,10.10
2018-06-09T04:37:37.612Z,12.45
2018-06-09T04:40:05.818Z,10.98
2018-06-09T04:42:34.836Z,10.88
2018-06-09T04:45:03.514Z,9.88
2018-06-09T04:47:31.640Z,12.02
2018-06-09T04:50:01.734Z,14.32
2018-06-09T04:52:29.856Z,10.38
2018-06-09T04:55:08.445Z,10.07
2018-06-09T04:57:37.261Z,11.45
2018-06-09T05:00:05.388Z,12.77
2018-06-09T05:02:33.502Z,13.70
2018-06-09T05:05:01.643Z,11.70
2018-06-09T05:07:29.770Z,14.35
2018-06-09T05:09:58.657Z,9.85
2018-06-09T05:12:27.540Z,9.60
2018-06-09T05:14:55.732Z,11.40
2018-06-09T05:17:25.884Z,9.07
2018-06-09T05:19:53.992Z,11.07
2018-06-09T05:22:23.960Z,8.70
2018-06-09T05:24:52.150Z,11.05
2018-06-09T05:27:20.573Z,8.98
2018-06-09T05:29:48.694Z,9.32
2018-06-09T05:32:17.579Z,10.10
2018-06-09T05:34:46.421Z,14.07
2018-06-09T05:37:15.333Z,9.23
2018-06-09T05:39:44.220Z,9.02
2018-06-09T05:42:13.287Z,9.30
2018-06-09T05:44:41.397Z,8.73
2018-06-09T05:47:09.677Z,9.35
2018-06-09T05:49:37.780Z,10.30
2018-06-09T05:52:05.908Z,10.95
2018-06-09T05:54:34.801Z,8.77
2018-06-09T05:57:04.147Z,8.77
2018-06-09T05:59:32.276Z,10.23
2018-06-09T06:02:01.166Z,9.98
2018-06-09T06:04:29.823Z,10.00
2018-06-09T06:06:58.762Z,10.30
2018-06-09T06:09:27.657Z,11.40
2018-06-09T06:11:55.779Z,10.53
2018-06-09T06:14:24.023Z,14.00
2018-06-09T06:16:52.909Z,10.30
2018-06-09T06:19:21.780Z,9.20
2018-06-09T06:21:50.663Z,8.93
2018-06-09T06:24:20.500Z,10.90
2018-06-09T06:26:48.629Z,8.90
2018-06-09T06:29:16.744Z,8.83
2018-06-09T06:31:45.378Z,10.50
2018-06-09T06:34:13.515Z,13.70
2018-06-09T06:36:41.953Z,10.67
2018-06-09T06:39:10.893Z,10.33
2018-06-09T06:41:39.011Z,11.00
2018-06-09T06:44:07.129Z,9.70
2018-06-09T06:46:35.254Z,8.07
2018-06-09T06:49:03.376Z,10.70
2018-06-09T06:51:31.501Z,9.00
2018-06-09T06:53:59.605Z,9.57
2018-06-09T06:56:27.748Z,9.63
2018-06-09T06:58:55.869Z,11.20
2018-06-09T07:01:24.000Z,9.73
2018-06-09T07:03:52.377Z,9.73
2018-06-09T07:06:20.495Z,11.43
2018-06-09T07:08:48.611Z,11.23
2018-06-09T07:11:16.745Z,10.77
2018-06-09T07:13:44.948Z,11.60
2018-06-09T07:16:15.585Z,10.17
2018-06-09T07:18:46.636Z,11.20
2018-06-09T07:21:14.746Z,11.93
2018-06-09T07:23:42.882Z,10.20
2018-06-09T07:26:12.032Z,11.17
2018-06-09T07:28:41.069Z,10.73
2018-06-09T07:31:09.183Z,11.40
2018-06-09T07:33:37.333Z,11.07
2018-06-09T07:36:06.329Z,11.47
2018-06-09T07:38:35.213Z,12.40
2018-06-09T07:41:03.314Z,11.73
2018-06-09T07:43:31.463Z,10.23
2018-06-09T07:45:59.627Z,12.07
2018-06-09T07:48:29.534Z,11.77
2018-06-09T07:50:59.009Z,12.80
2018-06-09T07:53:28.055Z,15.30
2018-06-09T07:55:57.035Z,15.23
2018-06-09T07:58:25.186Z,13.80
2018-06-09T08:00:53.353Z,13.77
2018-06-09T08:03:21.526Z,13.67
2018-06-09T08:05:49.793Z,14.17
2018-06-09T08:08:18.426Z,13.97
2018-06-09T08:10:47.306Z,12.47
2018-06-09T08:13:15.493Z,18.33
2018-06-09T08:15:44.503Z,15.70
2018-06-09T08:18:12.627Z,15.83
2018-06-09T08:20:40.764Z,14.37
2018-06-09T08:23:09.487Z,15.17
2018-06-09T08:25:38.702Z,13.63
2018-06-09T08:28:06.831Z,13.97
2018-06-09T08:30:34.955Z,14.63
2018-06-09T08:33:03.079Z,15.43
2018-06-09T08:35:31.299Z,14.30
2018-06-09T08:37:59.421Z,14.93
2018-06-09T08:40:27.553Z,13.53
2018-06-09T08:42:55.755Z,14.10
2018-06-09T08:45:24.022Z,14.37
2018-06-09T08:47:52.928Z,15.90
2018-06-09T08:50:21.070Z,15.30
2018-06-09T08:52:50.358Z,14.60
2018-06-09T08:55:18.494Z,16.30
2018-06-09T08:57:46.614Z,13.97
2018-06-09T09:00:15.517Z,15.50
2018-06-09T09:02:43.660Z,14.30
2018-06-09T09:05:12.674Z,15.30
2018-06-09T09:07:40.796Z,15.93
2018-06-09T09:10:08.922Z,14.80
2018-06-09T09:12:37.838Z,17.03
2018-06-09T09:15:05.961Z,16.47
2018-06-09T09:17:34.105Z,15.73
2018-06-09T09:20:02.255Z,18.80
2018-06-09T09:22:30.379Z,17.80
2018-06-09T09:24:58.522Z,18.40
2018-06-09T09:27:26.754Z,18.33
2018-06-09T09:29:54.969Z,18.40
2018-06-09T09:32:24.077Z,18.23
2018-06-09T09:34:57.912Z,17.37
2018-06-09T09:37:27.625Z,18.60
2018-06-09T09:39:56.616Z,17.60
2018-06-09T09:42:24.753Z,20.57
2018-06-09T09:44:54.468Z,18.73
2018-06-09T09:47:24.512Z,18.67
2018-06-09T09:49:52.597Z,19.25
2018-06-09T09:52:20.728Z,17.23
2018-06-09T09:54:49.139Z,17.53
2018-06-09T09:57:19.080Z,16.50
2018-06-09T09:59:47.195Z,16.20
2018-06-09T10:02:16.303Z,19.13
2018-06-09T10:04:44.462Z,16.40
2018-06-09T10:07:12.718Z,17.40
2018-06-09T10:09:40.864Z,15.90
2018-06-09T10:12:09.010Z,16.13
2018-06-09T10:14:37.116Z,16.40
2018-06-09T10:17:05.448Z,17.90
2018-06-09T10:19:33.567Z,15.90
2018-06-09T10:22:02.201Z,17.63
2018-06-09T10:24:32.488Z,17.00
2018-06-09T10:27:01.366Z,17.93
2018-06-09T10:29:29.531Z,14.50
2018-06-09T10:31:59.984Z,15.93
2018-06-09T10:34:28.100Z,14.10
2018-06-09T10:36:56.325Z,14.93
2018-06-09T10:39:25.218Z,13.93
2018-06-09T10:41:53.706Z,14.90
2018-06-09T10:44:21.830Z,13.50
2018-06-09T10:46:51.051Z,15.88
2018-06-09T10:49:19.178Z,14.37
2018-06-09T10:51:47.481Z,14.63
2018-06-09T10:54:15.637Z,17.17
2018-06-09T10:56:43.779Z,13.80
2018-06-09T10:59:12.651Z,14.50
2018-06-09T11:01:41.534Z,13.97
2018-06-09T11:04:09.706Z,15.00
2018-06-09T11:06:47.769Z,14.80
2018-06-09T11:09:15.975Z,15.23
2018-06-09T11:11:44.154Z,13.13
2018-06-09T11:14:12.547Z,14.33
2018-06-09T11:16:40.666Z,14.90
2018-06-09T11:19:09.713Z,15.77
2018-06-09T11:21:37.839Z,14.10
2018-06-09T11:24:06.169Z,15.60
2018-06-09T11:26:38.893Z,17.70
2018-06-09T11:29:07.114Z,14.47
2018-06-09T11:31:40.942Z,14.50
2018-06-09T11:34:09.809Z,14.47
2018-06-09T11:36:38.903Z,13.97
2018-06-09T11:39:07.084Z,12.87
2018-06-09T11:41:35.235Z,14.43
2018-06-09T11:44:03.577Z,13.67
2018-06-09T11:46:31.831Z,16.13
2018-06-09T11:49:00.729Z,13.70
2018-06-09T11:51:28.859Z,13.90
2018-06-09T11:53:56.992Z,17.40
2018-06-09T11:56:28.329Z,13.50
2018-06-09T11:58:57.207Z,14.90
2018-06-09T12:01:26.115Z,12.10
2018-06-09T12:03:54.239Z,13.57
2018-06-09T12:06:22.378Z,11.60
2018-06-09T12:08:50.492Z,10.03
2018-06-09T12:11:18.628Z,12.10
2018-06-09T12:13:46.764Z,11.83
2018-06-09T12:16:15.018Z,12.90
2018-06-09T12:18:43.190Z,13.80
2018-06-09T12:21:11.319Z,11.40
2018-06-09T12:23:39.489Z,13.03
2018-06-09T12:26:07.737Z,9.70
2018-06-09T12:28:35.849Z,10.73
2018-06-09T12:31:03.979Z,9.40
2018-06-09T12:33:32.884Z,10.03
2018-06-09T12:36:01.019Z,9.80
2018-06-09T12:38:29.234Z,11.23
2018-06-09T12:40:57.362Z,11.17
2018-06-09T12:43:26.125Z,11.07
2018-06-09T12:45:55.401Z,10.70
2018-06-09T12:48:24.319Z,10.23
2018-06-09T12:50:52.844Z,11.50
2018-06-09T12:53:21.006Z,12.37
2018-06-09T12:55:50.147Z,13.47
2018-06-09T12:58:18.245Z,11.97
2018-06-09T13:00:46.368Z,14.40
2018-06-09T13:03:15.284Z,12.93
2018-06-09T13:05:44.507Z,12.70
2018-06-09T13:08:12.593Z,13.40
2018-06-09T13:10:40.724Z,13.17
2018-06-09T13:13:08.865Z,12.90
2018-06-09T13:15:39.077Z,13.63
2018-06-09T13:18:07.213Z,13.03
2018-06-09T13:20:38.751Z,12.07
2018-06-09T13:23:07.912Z,12.40
2018-06-09T13:25:44.559Z,12.70
2018-06-09T13:28:22.532Z,13.23
2018-06-09T13:30:51.102Z,14.10
2018-06-09T13:33:26.016Z,12.27
2018-06-09T13:35:58.535Z,13.80
2018-06-09T13:38:27.300Z,13.00
2018-06-09T13:40:57.586Z,15.50
2018-06-09T13:43:28.174Z,14.73
2018-06-09T13:45:56.425Z,12.90
2018-06-09T13:51:06.829Z,10.83
2018-06-09T13:53:35.313Z,9.93
2018-06-09T13:56:03.484Z,11.57
2018-06-09T13:58:31.834Z,9.77
2018-06-09T14:01:00.055Z,10.60
2018-06-09T14:03:28.209Z,11.27
2018-06-09T14:05:59.275Z,10.13
2018-06-09T14:08:27.442Z,7.83
2018-06-09T14:10:55.617Z,7.40
2018-06-09T14:13:23.820Z,6.93
2018-06-09T14:15:51.913Z,6.17
2018-06-09T14:18:20.100Z,6.67
2018-06-09T14:20:50.028Z,6.60
2018-06-09T14:23:18.217Z,5.43
2018-06-09T14:25:46.418Z,5.73
2018-06-09T14:28:15.465Z,6.17
2018-06-09T14:30:45.530Z,7.00
2018-06-09T14:33:14.491Z,7.30
2018-06-09T14:35:43.419Z,11.20
2018-06-09T14:38:12.342Z,7.73
2018-06-09T14:40:44.269Z,9.03
2018-06-09T14:43:12.536Z,8.57
2018-06-09T14:45:42.704Z,7.10
2018-06-09T14:48:10.887Z,8.00
2018-06-09T14:50:39.877Z,7.73
2018-06-09T14:53:08.040Z,7.70
2018-06-09T14:55:39.762Z,9.07
2018-06-09T14:58:09.072Z,9.30
2018-06-09T15:00:40.669Z,12.83
2018-06-09T15:03:09.794Z,9.73
2018-06-09T15:05:37.910Z,11.00
2018-06-09T15:08:07.545Z,9.43
2018-06-09T15:10:35.657Z,8.30
2018-06-09T15:13:03.775Z,9.90
2018-06-09T15:15:33.864Z,10.03
2018-06-09T15:18:01.987Z,10.07
2018-06-09T15:20:30.106Z,8.77
2018-06-09T15:22:58.234Z,9.83
2018-06-09T15:25:26.352Z,14.73
2018-06-09T15:27:54.488Z,15.73
2018-06-09T15:30:23.456Z,19.50
2018-06-09T15:32:51.590Z,22.53
2018-06-09T15:35:20.888Z,17.70
2018-06-09T15:37:49.002Z,15.07
2018-06-09T15:40:18.112Z,16.70
2018-06-09T15:42:46.309Z,12.30
2018-06-09T15:45:14.444Z,45.80
2018-06-09T15:47:43.337Z,15.60
2018-06-09T15:50:11.475Z,14.57
2018-06-09T15:52:40.358Z,18.10
2018-06-09T15:55:08.495Z,13.00
2018-06-09T15:57:37.580Z,11.67
2018-06-09T16:00:05.722Z,11.33
2018-06-09T16:02:34.707Z,10.73
2018-06-09T16:05:02.828Z,10.87
2018-06-09T16:07:31.420Z,11.10
2018-06-09T16:09:59.556Z,10.97
2018-06-09T16:12:28.468Z,12.00
2018-06-09T16:14:57.419Z,12.13
2018-06-09T16:17:26.780Z,11.70
2018-06-09T16:19:54.874Z,9.33
2018-06-09T16:22:23.008Z,11.03
2018-06-09T16:24:51.184Z,10.90
2018-06-09T16:27:19.426Z,11.60
2018-06-09T16:29:47.553Z,10.90
2018-06-09T16:32:15.917Z,10.70
2018-06-09T16:34:44.038Z,12.50
2018-06-09T16:37:12.977Z,10.80
2018-06-09T16:39:41.554Z,11.03
2018-06-09T16:42:09.705Z,8.70
2018-06-09T16:44:37.822Z,9.17
2018-06-09T16:47:06.017Z,9.40
2018-06-09T16:49:34.177Z,9.87
2018-06-09T16:52:02.356Z,10.53
2018-06-09T16:54:30.492Z,9.50
2018-06-09T16:56:59.359Z,9.17
2018-06-09T16:59:28.244Z,10.33
2018-06-09T17:01:58.393Z,8.93
2018-06-09T17:04:28.333Z,10.20
2018-06-09T17:06:57.326Z,9.17
2018-06-09T17:09:26.286Z,9.43
2018-06-09T17:11:55.295Z,8.93
2018-06-09T17:14:23.678Z,9.50
2018-06-09T17:16:52.165Z,9.87
2018-06-09T17:19:20.288Z,9.10
2018-06-09T17:21:49.217Z,10.03
2018-06-09T17:24:17.352Z,9.93
2018-06-09T17:26:45.481Z,10.80
2018-06-09T17:29:13.749Z,10.03
2018-06-09T17:31:43.102Z,10.57
2018-06-09T17:34:11.216Z,9.73
2018-06-09T17:36:40.401Z,11.23
2018-06-09T17:39:08.569Z,9.83
2018-06-09T17:41:37.571Z,10.70
2018-06-09T17:44:06.589Z,10.43
2018-06-09T17:46:34.956Z,10.03
2018-06-09T17:49:03.997Z,9.43
2018-06-09T17:51:32.943Z,10.53
2018-06-09T17:54:01.356Z,10.53
2018-06-09T17:56:29.472Z,10.27
2018-06-09T17:58:58.035Z,9.13
2018-06-09T18:01:26.174Z,10.10
2018-06-09T18:03:54.358Z,10.43
2018-06-09T18:06:22.562Z,9.23
2018-06-09T18:08:50.727Z,9.43
2018-06-09T18:11:18.875Z,11.63
2018-06-09T18:13:47.931Z,9.00
2018-06-09T18:16:16.118Z,9.80
2018-06-09T18:18:44.236Z,8.53
2018-06-09T18:21:12.416Z,8.47
2018-06-09T18:23:40.519Z,9.47
2018-06-09T18:26:10.213Z,8.20
2018-06-09T18:28:38.366Z,9.47
2018-06-09T18:31:06.495Z,9.97
2018-06-09T18:33:34.733Z,8.70
2018-06-09T18:36:03.777Z,10.77
2018-06-09T18:38:31.942Z,9.00
2018-06-09T18:41:00.095Z,9.90
2018-06-09T18:43:29.384Z,11.10
2018-06-09T18:45:57.512Z,8.93
2018-06-09T18:48:25.638Z,15.77
2018-06-09T18:50:53.778Z,13.87
2018-06-09T18:53:21.916Z,11.30
2018-06-09T18:55:50.170Z,11.50
2018-06-09T18:58:18.307Z,12.93
2018-06-09T19:00:46.546Z,23.57
2018-06-09T19:03:15.478Z,16.60
2018-06-09T19:05:43.759Z,13.10
2018-06-09T19:08:12.761Z,11.90
2018-06-09T19:10:40.916Z,11.50
2018-06-09T19:13:09.391Z,10.67
2018-06-09T19:15:37.632Z,11.33
2018-06-09T19:18:05.769Z,12.07
2018-06-09T19:20:36.359Z,12.10
2018-06-09T19:23:04.777Z,17.37
2018-06-09T19:25:33.753Z,13.93
2018-06-09T19:28:01.873Z,12.80
2018-06-09T19:30:31.388Z,13.47
2018-06-09T19:32:59.501Z,11.83
2018-06-09T19:35:27.686Z,12.10
2018-06-09T19:38:53.927Z,12.90
2018-06-09T19:41:22.840Z,11.80
2018-06-09T19:43:51.729Z,12.17
2018-06-09T19:46:19.968Z,12.03
2018-06-09T19:48:48.108Z,12.43
2018-06-09T19:51:17.020Z,25.33
2018-06-09T19:53:45.464Z,25.50
2018-06-09T19:56:15.350Z,18.87
2018-06-09T19:58:44.249Z,15.30
2018-06-09T20:01:13.556Z,11.33
2018-06-09T20:03:42.460Z,11.80
2018-06-09T20:06:10.763Z,12.43
2018-06-09T20:08:38.868Z,12.00
2018-06-09T20:11:07.046Z,11.90
2018-06-09T20:13:35.178Z,12.03
2018-06-09T20:16:04.468Z,11.80
2018-06-09T20:18:33.011Z,14.50
2018-06-09T20:21:01.950Z,13.47
2018-06-09T20:23:30.093Z,12.40
2018-06-09T20:25:58.342Z,14.67
2018-06-09T20:28:26.492Z,12.77
2018-06-09T20:30:54.680Z,13.70
2018-06-09T20:33:22.945Z,13.60
2018-06-09T20:35:51.078Z,12.57
2018-06-09T20:38:19.247Z,13.70
2018-06-09T20:40:47.364Z,14.80
2018-06-09T20:43:15.530Z,14.50
2018-06-09T20:45:44.768Z,14.37
2018-06-09T20:48:13.692Z,14.17
2018-06-09T20:50:41.851Z,14.70
2018-06-09T20:53:09.964Z,15.63
2018-06-09T20:55:38.094Z,13.80
2018-06-09T20:58:06.212Z,14.07
2018-06-09T21:00:34.371Z,14.50
2018-06-09T21:03:02.567Z,15.93
2018-06-09T21:05:30.775Z,15.70
2018-06-09T21:07:59.697Z,17.00
2018-06-09T21:10:27.844Z,16.13
2018-06-09T21:12:56.743Z,15.50
2018-06-09T21:15:28.270Z,17.30
2018-06-09T21:17:57.427Z,16.63
2018-06-09T21:20:25.575Z,16.43
2018-06-09T21:22:54.868Z,16.10
2018-06-09T21:25:23.774Z,18.60
2018-06-09T21:27:52.670Z,17.40
2018-06-09T21:30:20.823Z,17.03
2018-06-09T21:32:50.107Z,18.03
2018-06-09T21:38:44.624Z,18.40
2018-06-09T21:41:16.338Z,17.50
2018-06-09T21:43:44.991Z,17.67
2018-06-09T21:46:13.912Z,14.90
2018-06-09T21:48:42.058Z,14.60
2018-06-09T21:51:11.819Z,17.17
2018-06-09T21:53:39.949Z,17.17
2018-06-09T21:56:15.021Z,18.20
2018-06-09T21:58:44.760Z,17.20
2018-06-09T22:01:12.966Z,17.77
2018-06-09T22:03:43.042Z,17.40
2018-06-09T22:06:12.159Z,16.73
2018-06-09T22:08:41.466Z,16.17
2018-06-09T22:11:11.630Z,16.10
2018-06-09T22:13:40.682Z,16.10
2018-06-09T22:16:10.788Z,15.93
2018-06-09T22:18:39.324Z,16.13
2018-06-09T22:21:08.253Z,19.90
2018-06-09T22:23:36.426Z,17.70
2018-06-09T22:26:04.892Z,18.43
2018-06-09T22:28:33.057Z,17.93
2018-06-09T22:31:03.042Z,18.17
2018-06-09T22:33:31.153Z,16.33
2018-06-09T22:36:01.475Z,15.93
2018-06-09T22:38:29.694Z,18.43
2018-06-09T22:40:58.954Z,17.43
2018-06-09T22:43:27.886Z,17.37
2018-06-09T22:45:57.921Z,15.60
2018-06-09T22:48:26.971Z,16.53
2018-06-09T22:50:55.106Z,16.90
2018-06-09T22:53:23.236Z,17.47
2018-06-09T22:55:55.479Z,16.63
2018-06-09T22:58:24.057Z,18.10
2018-06-09T23:00:52.195Z,17.20
2018-06-09T23:03:20.335Z,16.00
2018-06-09T23:05:48.456Z,17.20
2018-06-09T23:08:16.988Z,17.13
2018-06-09T23:10:46.595Z,15.87
2018-06-09T23:13:14.760Z,18.23
2018-06-09T23:15:47.439Z,17.77
2018-06-09T23:18:19.235Z,15.37
2018-06-09T23:20:48.129Z,15.40
2018-06-09T23:23:16.358Z,15.50
2018-06-09T23:25:44.619Z,15.30
2018-06-09T23:28:14.047Z,16.80
2018-06-09T23:30:42.203Z,14.30
2018-06-09T23:33:10.903Z,15.83
2018-06-09T23:35:42.209Z,15.67
2018-06-09T23:38:10.360Z,16.90
2018-06-09T23:40:39.248Z,15.88
2018-06-09T23:43:07.377Z,15.75
2018-06-09T23:45:35.567Z,16.92
2018-06-09T23:48:03.707Z,17.75
2018-06-09T23:50:31.893Z,17.52
2018-06-09T23:53:00.009Z,17.35
2018-06-09T23:55:28.250Z,18.30
2018-06-09T23:57:56.412Z,17.80
